Time;durP1;ratioP1;P1;durP2;ratioP2;P2;SDS_P1;SDS_P2;PMS_P1;PMS_P2;Temp;Humidity;BMP_temperature;BMP_pressure;BME280_temperature;BME280_humidity;BME280_pressure;Samples;Min_cycle;Max_cycle;Signal;HPM_P1;HPM_P2
2023/05/26 00:01:25;;;;;;;17.90;4.90;;;;;;;8.04;100.00;102069.59;4946161;28;20073;-82
2023/05/26 00:03:52;;;;;;;24.75;5.68;;;;;;;8.00;100.00;102072.13;4949330;28;20130;-81
2023/05/26 00:06:20;;;;;;;15.80;5.00;;;;;;;7.95;100.00;102072.91;4942325;29;20475;-80
2023/05/26 00:08:48;;;;;;;25.70;5.00;;;;;;;7.91;100.00;102073.66;4920804;29;20422;-81
2023/05/26 00:11:14;;;;;;;21.95;4.85;;;;;;;7.90;100.00;102077.13;4940687;29;20051;-83
2023/05/26 00:13:41;;;;;;;30.35;6.90;;;;;;;7.92;100.00;102072.81;4934352;29;20138;-83
2023/05/26 00:16:10;;;;;;;17.92;4.28;;;;;;;7.88;100.00;102072.69;4930882;29;20067;-80
2023/05/26 00:18:38;;;;;;;22.13;5.13;;;;;;;7.83;100.00;102076.91;4934382;29;20047;-83
2023/05/26 00:21:05;;;;;;;20.95;4.50;;;;;;;7.81;100.00;102083.81;4938849;29;20126;-80
2023/05/26 00:23:31;;;;;;;20.60;4.45;;;;;;;7.76;100.00;102079.34;4942655;29;20117;-81
2023/05/26 00:25:59;;;;;;;18.88;5.35;;;;;;;7.73;100.00;102081.91;4927840;29;20040;-83
2023/05/26 00:28:26;;;;;;;24.10;4.93;;;;;;;7.67;100.00;102086.94;4930429;29;20071;-80
2023/05/26 00:30:52;;;;;;;18.17;5.88;;;;;;;7.60;100.00;102091.13;4930989;29;20044;-79
2023/05/26 00:33:19;;;;;;;23.00;5.38;;;;;;;7.55;100.00;102086.63;4929554;29;20048;-79
2023/05/26 00:35:46;;;;;;;24.40;4.82;;;;;;;7.51;100.00;102084.75;4931410;29;20046;-79
2023/05/26 00:38:12;;;;;;;24.90;4.57;;;;;;;7.49;100.00;102086.47;4912362;29;20052;-79
2023/05/26 00:40:39;;;;;;;22.60;5.95;;;;;;;7.49;100.00;102083.88;4913175;29;20103;-86
2023/05/26 00:43:06;;;;;;;26.00;5.22;;;;;;;7.45;100.00;102085.50;4929650;29;20071;-86
2023/05/26 00:45:32;;;;;;;17.23;4.80;;;;;;;7.42;100.00;102090.63;4932323;29;20044;-87
2023/05/26 00:47:58;;;;;;;16.50;5.05;;;;;;;7.40;100.00;102087.97;4933786;29;20047;-80
2023/05/26 00:50:27;;;;;;;22.45;4.72;;;;;;;7.36;100.00;102093.06;4941913;29;20247;-91
2023/05/26 00:52:53;;;;;;;17.63;4.30;;;;;;;7.32;100.00;102096.44;4944148;29;20075;-79
2023/05/26 00:55:21;;;;;;;18.23;4.97;;;;;;;7.30;100.00;102093.78;4918591;29;20138;-80
2023/05/26 00:57:48;;;;;;;17.60;4.30;;;;;;;7.28;100.00;102088.50;4929289;29;20050;-81
2023/05/26 01:00:15;;;;;;;22.27;4.85;;;;;;;7.26;100.00;102087.59;4928482;29;20051;-83
2023/05/26 01:02:42;;;;;;;19.33;4.38;;;;;;;7.23;100.00;102084.03;4934309;29;20055;-80
2023/05/26 01:05:09;;;;;;;22.08;5.07;;;;;;;7.22;100.00;102090.06;4917337;29;20047;-79
2023/05/26 01:07:36;;;;;;;23.75;7.63;;;;;;;7.17;100.00;102082.13;4916912;29;20043;-82
2023/05/26 01:10:04;;;;;;;13.68;4.38;;;;;;;7.15;100.00;102082.94;4930208;29;20070;-85
2023/05/26 01:12:51;;;;;;;19.42;4.53;;;;;;;7.13;100.00;102090.69;4929607;29;20052;-86
2023/05/26 01:15:25;;;;;;;26.63;5.13;;;;;;;7.09;100.00;102087.13;4923027;29;20040;-79
2023/05/26 01:18:28;;;;;;;23.10;5.35;;;;;;;7.08;100.00;102093.16;4930428;29;20099;-78
2023/05/26 01:21:06;;;;;;;35.30;5.03;;;;;;;7.07;100.00;102094.00;4944923;28;20047;-78
2023/05/26 01:24:00;;;;;;;21.33;5.57;;;;;;;7.07;100.00;102093.13;4930645;29;20051;-83
2023/05/26 01:26:38;;;;;;;16.55;5.10;;;;;;;7.07;100.00;102093.13;4931814;29;20039;-83
2023/05/26 01:29:12;;;;;;;16.70;4.45;;;;;;;7.02;100.00;102079.97;4944024;29;20101;-80
2023/05/26 01:31:39;;;;;;;21.75;4.30;;;;;;;7.00;100.00;102088.56;4945564;28;20051;-80
2023/05/26 01:34:07;;;;;;;19.30;5.70;;;;;;;6.96;100.00;102092.81;4937621;29;20486;-87
2023/05/26 01:36:35;;;;;;;24.83;6.00;;;;;;;6.94;100.00;102095.38;4943297;29;20043;-83
2023/05/26 01:39:02;;;;;;;25.58;4.55;;;;;;;6.91;100.00;102090.09;4939687;29;20039;-85
2023/05/26 01:41:42;;;;;;;18.65;5.00;;;;;;;6.87;100.00;102088.22;4936843;29;20059;-80
2023/05/26 01:44:28;;;;;;;20.75;5.70;;;;;;;6.87;100.00;102087.31;4949283;29;20050;-80
2023/05/26 01:46:55;;;;;;;29.80;5.32;;;;;;;6.84;100.00;102100.25;4936462;29;20035;-79
2023/05/26 01:49:29;;;;;;;31.92;7.78;;;;;;;6.83;100.00;102103.69;4924340;29;20050;-90
2023/05/26 01:52:02;;;;;;;21.65;5.80;;;;;;;6.79;100.00;102106.22;4933597;29;20047;-79
2023/05/26 01:54:36;;;;;;;40.05;7.57;;;;;;;6.79;100.00;102108.81;4941395;29;20039;-84
2023/05/26 01:57:05;;;;;;;16.20;5.60;;;;;;;6.77;100.00;102101.81;4932706;29;20043;-87
2023/05/26 01:59:32;;;;;;;27.73;5.80;;;;;;;6.76;100.00;102103.50;4932396;29;20061;-80
2023/05/26 02:01:58;;;;;;;25.40;6.78;;;;;;;6.73;100.00;102100.81;4937804;29;20501;-79
2023/05/26 02:04:25;;;;;;;19.92;5.30;;;;;;;6.70;100.00;102102.44;4918978;29;20052;-80
2023/05/26 02:06:52;;;;;;;30.20;6.13;;;;;;;6.65;100.00;102104.94;4915879;29;20129;-80
2023/05/26 02:09:19;;;;;;;23.30;6.45;;;;;;;6.64;100.00;102103.16;4911582;28;20043;-89
2023/05/26 02:11:46;;;;;;;25.17;6.15;;;;;;;6.63;100.00;102103.97;4936158;29;20075;-84
2023/05/26 02:14:12;;;;;;;25.70;5.32;;;;;;;6.57;100.00;102104.69;4927437;29;20111;-82
2023/05/26 02:16:39;;;;;;;25.60;4.88;;;;;;;6.53;100.00;102105.44;4920180;29;20854;-81
2023/05/26 02:19:07;;;;;;;17.02;4.50;;;;;;;6.48;100.00;102112.22;4930626;28;20113;-86
2023/05/26 02:21:35;;;;;;;28.42;6.05;;;;;;;6.46;100.00;102116.47;4927827;29;20055;-88
2023/05/26 02:24:05;;;;;;;18.92;5.18;;;;;;;6.47;100.00;102113.03;4929246;29;20051;-84
2023/05/26 02:26:31;;;;;;;22.50;4.95;;;;;;;6.44;100.00;102108.63;4929303;29;20043;-80
2023/05/26 02:29:01;;;;;;;13.43;4.63;;;;;;;6.43;100.00;102111.19;4929755;29;20074;-79
2023/05/26 02:31:28;;;;;;;21.38;4.93;;;;;;;6.36;100.00;102106.59;4936117;29;20052;-81
2023/05/26 02:33:55;;;;;;;23.52;5.28;;;;;;;6.38;100.00;102104.94;4945443;29;20050;-86
2023/05/26 02:36:21;;;;;;;23.75;7.63;;;;;;;6.40;100.00;102109.38;4930526;29;20036;-84
2023/05/26 02:38:48;;;;;;;23.02;4.93;;;;;;;6.38;100.00;102104.94;4917144;29;20051;-81
2023/05/26 02:41:15;;;;;;;20.65;5.78;;;;;;;6.40;100.00;102116.25;4913063;29;20047;-81
2023/05/26 02:43:41;;;;;;;22.92;5.05;;;;;;;6.37;100.00;102123.97;4916699;29;20055;-81
2023/05/26 02:46:08;;;;;;;22.20;4.63;;;;;;;6.37;100.00;102121.38;4926123;29;20709;-82
2023/05/26 02:48:35;;;;;;;21.48;5.28;;;;;;;6.33;100.00;102117.78;4919435;29;20487;-82
2023/05/26 02:51:01;;;;;;;20.25;5.63;;;;;;;6.31;100.00;102127.28;4943258;29;20043;-84
2023/05/26 02:53:28;;;;;;;30.77;5.72;;;;;;;6.32;100.00;102125.56;4925530;29;20560;-80
2023/05/26 02:55:54;;;;;;;20.83;5.43;;;;;;;6.33;100.00;102127.31;4934299;29;20035;-87
2023/05/26 02:58:21;;;;;;;18.98;5.53;;;;;;;6.32;100.00;102125.56;4935324;29;20054;-78
2023/05/26 03:00:48;;;;;;;23.83;5.03;;;;;;;6.29;100.00;102121.13;4916823;29;20138;-81
2023/05/26 03:03:14;;;;;;;25.75;5.75;;;;;;;6.26;100.00;102126.25;4928014;29;20368;-80
2023/05/26 03:05:41;;;;;;;18.30;5.97;;;;;;;6.25;100.00;102132.28;4919571;29;20058;-84
2023/05/26 03:08:07;;;;;;;23.20;5.88;;;;;;;6.23;100.00;102131.31;4928433;29;20555;-80
2023/05/26 03:10:34;;;;;;;21.33;5.95;;;;;;;6.22;100.00;102126.94;4934736;29;20040;-80
2023/05/26 03:13:01;;;;;;;21.55;5.68;;;;;;;6.21;100.00;102130.41;4916283;29;20036;-80
2023/05/26 03:15:36;;;;;;;23.48;5.13;;;;;;;6.18;100.00;102127.69;4942373;29;20106;-80
2023/05/26 03:18:03;;;;;;;20.70;5.15;;;;;;;6.16;100.00;102126.78;4937566;29;20150;-80
2023/05/26 03:20:30;;;;;;;17.90;6.03;;;;;;;6.15;100.00;102130.19;4930084;29;20111;-80
2023/05/26 03:22:57;;;;;;;25.55;4.82;;;;;;;6.15;100.00;102133.66;4934671;29;20036;-81
2023/05/26 03:25:23;;;;;;;15.48;5.22;;;;;;;6.15;100.00;102143.19;4918803;29;20789;-80
2023/05/26 03:27:50;;;;;;;22.38;5.25;;;;;;;6.17;100.00;102145.03;4935123;29;20063;-87
2023/05/26 03:30:16;;;;;;;27.63;6.43;;;;;;;6.18;100.00;102148.50;4918500;29;20492;-79
2023/05/26 03:32:43;;;;;;;25.05;6.03;;;;;;;6.18;100.00;102148.50;4935614;29;20040;-81
2023/05/26 03:35:10;;;;;;;19.02;5.65;;;;;;;6.16;100.00;102150.16;4919300;29;20135;-80
2023/05/26 03:37:37;;;;;;;24.10;5.90;;;;;;;6.17;100.00;102158.03;4920222;29;20055;-80
2023/05/26 03:40:06;;;;;;;25.55;6.43;;;;;;;6.18;100.00;102156.28;4918804;29;20055;-80
2023/05/26 03:42:32;;;;;;;38.58;8.10;;;;;;;6.16;100.00;102151.03;4927806;29;20047;-81
2023/05/26 03:44:58;;;;;;;22.42;5.13;;;;;;;6.20;100.00;102157.25;4918573;29;20047;-82
2023/05/26 03:47:26;;;;;;;22.30;5.10;;;;;;;6.24;100.00;102159.97;4935122;29;20051;-81
2023/05/26 03:49:52;;;;;;;23.77;6.95;;;;;;;6.29;100.00;102162.75;4927895;29;20490;-81
2023/05/26 03:52:19;;;;;;;27.50;6.57;;;;;;;6.33;100.00;102162.00;4932622;29;20506;-80
2023/05/26 03:54:45;;;;;;;19.42;6.32;;;;;;;6.36;100.00;102162.13;4928143;29;20070;-84
2023/05/26 03:57:12;;;;;;;21.95;6.15;;;;;;;6.38;100.00;102159.56;4932275;29;20107;-81
2023/05/26 03:59:38;;;;;;;22.55;4.68;;;;;;;6.40;100.00;102163.09;4935089;29;20040;-81
2023/05/26 04:02:05;;;;;;;31.45;7.05;;;;;;;6.38;100.00;102162.16;4945148;29;20039;-80
2023/05/26 04:04:31;;;;;;;21.02;5.65;;;;;;;6.37;100.00;102160.41;4934763;29;20044;-83
2023/05/26 04:06:58;;;;;;;32.30;5.55;;;;;;;6.37;100.00;102166.47;4933893;29;20040;-81
2023/05/26 04:09:24;;;;;;;25.60;5.07;;;;;;;6.36;100.00;102158.63;4934168;29;20043;-80
2023/05/26 04:11:51;;;;;;;20.75;5.15;;;;;;;6.38;100.00;102157.84;4933336;29;20047;-78
2023/05/26 04:14:17;;;;;;;24.20;5.75;;;;;;;6.41;100.00;102165.75;4934483;29;20043;-79
2023/05/26 04:16:44;;;;;;;25.27;7.07;;;;;;;6.43;100.00;102168.41;4929714;29;20039;-89
2023/05/26 04:19:11;;;;;;;26.08;5.63;;;;;;;6.48;100.00;102174.66;4943739;29;20036;-78
2023/05/26 04:21:38;;;;;;;20.80;5.88;;;;;;;6.53;100.00;102177.38;4948217;29;20052;-79
2023/05/26 04:24:07;;;;;;;15.93;4.88;;;;;;;6.55;100.00;102179.19;4912756;29;20056;-80
2023/05/26 04:26:34;;;;;;;12.23;4.22;;;;;;;6.57;100.00;102181.84;4927351;29;20108;-78
2023/05/26 04:29:01;;;;;;;19.77;5.28;;;;;;;6.60;100.00;102181.97;4933628;29;20042;-79
2023/05/26 04:31:29;;;;;;;18.63;5.82;;;;;;;6.65;100.00;102180.38;4918262;29;20047;-79
2023/05/26 04:33:57;;;;;;;17.95;5.57;;;;;;;6.69;100.00;102176.13;4915979;29;20055;-79
2023/05/26 04:36:25;;;;;;;15.65;5.05;;;;;;;6.73;100.00;102186.72;4932573;29;20074;-78
2023/05/26 04:38:54;;;;;;;27.23;6.00;;;;;;;6.76;100.00;102186.78;4934480;29;20479;-79
2023/05/26 04:41:21;;;;;;;15.98;5.10;;;;;;;6.83;100.00;102184.38;4918921;29;20095;-79
2023/05/26 04:43:47;;;;;;;23.52;6.07;;;;;;;6.86;100.00;102184.50;4918313;29;20495;-81
2023/05/26 04:46:15;;;;;;;19.95;5.90;;;;;;;6.91;100.00;102186.41;4932076;29;20047;-79
2023/05/26 04:48:41;;;;;;;26.65;5.82;;;;;;;6.98;100.00;102192.69;4932122;29;20222;-81
2023/05/26 04:51:08;;;;;;;28.52;5.85;;;;;;;7.04;100.00;102198.06;4917693;29;20047;-78
2023/05/26 04:53:35;;;;;;;27.85;7.05;;;;;;;7.10;100.00;102194.75;4915288;29;20491;-79
2023/05/26 04:56:03;;;;;;;25.50;5.53;;;;;;;7.17;100.00;102196.72;4918687;29;20076;-79
2023/05/26 04:58:31;;;;;;;12.90;5.10;;;;;;;7.22;100.00;102200.38;4934502;29;20036;-78
2023/05/26 05:00:58;;;;;;;21.65;5.20;;;;;;;7.27;100.00;102203.09;4933975;29;20044;-80
2023/05/26 05:03:26;;;;;;;19.08;4.55;;;;;;;7.29;100.00;102197.09;4935845;29;20058;-81
2023/05/26 05:05:53;;;;;;;20.40;5.70;;;;;;;7.37;100.00;102206.84;4933721;29;20118;-81
2023/05/26 05:08:19;;;;;;;22.52;5.65;;;;;;;7.43;100.00;102209.63;4930901;29;20043;-79
2023/05/26 05:10:46;;;;;;;17.20;4.50;;;;;;;7.54;100.00;102203.00;4933877;29;20039;-80
2023/05/26 05:13:12;;;;;;;15.68;4.32;;;;;;;7.65;100.00;102205.03;4934122;29;20079;-79
2023/05/26 05:15:39;;;;;;;22.85;5.28;;;;;;;7.69;100.00;102207.78;4919417;29;20364;-79
2023/05/26 05:18:05;;;;;;;23.13;6.50;;;;;;;7.74;100.00;102214.00;4934743;29;20047;-79
2023/05/26 05:20:32;;;;;;;18.25;5.07;;;;;;;7.74;100.00;102207.88;4934085;29;20047;-80
2023/05/26 05:22:59;;;;;;;22.48;5.70;;;;;;;7.75;100.00;102213.16;4918817;29;20047;-79
2023/05/26 05:25:26;;;;;;;23.67;6.20;;;;;;;7.78;100.00;102213.25;4932321;29;20055;-85
2023/05/26 05:27:52;;;;;;;18.65;5.47;;;;;;;7.86;100.00;102220.38;4934354;29;20036;-85
2023/05/26 05:30:19;;;;;;;22.67;5.88;;;;;;;7.91;100.00;102219.69;4933412;29;20483;-82
2023/05/26 05:32:47;;;;;;;13.38;4.47;;;;;;;7.94;100.00;102216.28;4934612;29;20059;-80
2023/05/26 05:35:13;;;;;;;17.88;5.00;;;;;;;7.95;100.00;102215.41;4934138;29;20111;-79
2023/05/26 05:37:40;;;;;;;18.45;6.70;;;;;;;8.05;100.00;102227.00;4933965;29;20043;-81
2023/05/26 05:40:07;;;;;;;21.63;5.90;;;;;;;8.08;100.00;102222.75;4935413;29;20530;-80
2023/05/26 05:42:34;;;;;;;24.58;4.40;;;;;;;8.10;100.00;102228.00;4935037;29;20055;-82
2023/05/26 05:45:00;;;;;;;24.67;5.32;;;;;;;8.09;100.00;102226.22;4940789;29;20043;-80
2023/05/26 05:47:27;;;;;;;24.50;5.55;;;;;;;8.14;100.00;102227.22;4932694;29;20036;-79
2023/05/26 05:49:53;;;;;;;19.60;5.13;;;;;;;8.14;100.00;102229.84;4930945;29;20130;-82
2023/05/26 05:52:20;;;;;;;26.92;6.10;;;;;;;8.15;100.00;102229.00;4940535;29;20047;-80
2023/05/26 05:54:46;;;;;;;23.98;5.93;;;;;;;8.24;100.00;102229.25;4917460;29;20052;-80
2023/05/26 05:57:13;;;;;;;21.40;5.95;;;;;;;8.36;100.00;102230.41;4917078;29;20051;-82
2023/05/26 05:59:40;;;;;;;21.13;5.72;;;;;;;8.43;99.95;102237.53;4914019;29;20036;-83
2023/05/26 06:02:06;;;;;;;25.30;6.80;;;;;;;8.47;98.59;102247.22;4943872;29;20043;-91
2023/05/26 06:04:33;;;;;;;16.13;4.88;;;;;;;8.52;99.26;102242.16;4947614;29;20051;-81
2023/05/26 06:07:00;;;;;;;21.95;5.80;;;;;;;8.55;98.63;102242.22;4913482;29;20044;-80
2023/05/26 06:09:27;;;;;;;25.35;4.68;;;;;;;8.62;98.75;102244.16;4934190;29;20139;-80
2023/05/26 06:12:03;;;;;;;18.98;6.30;;;;;;;8.69;98.18;102240.81;4934439;29;20074;-79
2023/05/26 06:14:30;;;;;;;27.75;6.03;;;;;;;8.72;96.85;102243.53;4919951;29;20063;-80
2023/05/26 06:16:56;;;;;;;17.33;5.90;;;;;;;8.82;96.26;102244.63;4930046;28;20391;-86
2023/05/26 06:19:23;;;;;;;21.25;4.50;;;;;;;8.80;95.24;102243.72;4939722;29;20078;-80
2023/05/26 06:21:50;;;;;;;26.10;6.85;;;;;;;8.80;95.54;102246.31;4920042;29;20353;-80
2023/05/26 06:24:17;;;;;;;17.00;5.57;;;;;;;8.85;95.57;102235.97;4930356;29;20119;-80
2023/05/26 06:26:44;;;;;;;22.85;6.53;;;;;;;8.96;95.60;102236.22;4937885;29;20044;-80
2023/05/26 06:29:10;;;;;;;27.17;5.85;;;;;;;9.04;94.95;102242.53;4921071;29;20044;-83
2023/05/26 06:31:37;;;;;;;20.48;5.57;;;;;;;9.14;93.92;102248.81;4933141;29;20050;-79
2023/05/26 06:34:03;;;;;;;18.20;5.07;;;;;;;9.21;94.19;102250.75;4922392;29;20146;-79
2023/05/26 06:36:30;;;;;;;16.02;4.78;;;;;;;9.21;91.73;102254.22;4934083;29;20106;-82
2023/05/26 06:38:57;;;;;;;14.73;4.47;;;;;;;9.27;92.80;102253.50;4922749;29;20050;-80
2023/05/26 06:41:23;;;;;;;18.20;4.53;;;;;;;9.37;92.08;102249.34;4937513;29;20052;-80
2023/05/26 06:43:49;;;;;;;15.85;4.60;;;;;;;9.42;91.66;102251.19;4937987;29;20122;-80
2023/05/26 06:46:16;;;;;;;16.20;4.78;;;;;;;9.47;90.93;102242.59;4921114;29;20047;-79
2023/05/26 06:48:43;;;;;;;14.20;4.57;;;;;;;9.51;90.50;102255.75;4937145;29;20419;-80
2023/05/26 06:51:09;;;;;;;13.52;4.88;;;;;;;9.60;90.31;102260.28;4936740;29;20091;-80
2023/05/26 06:53:37;;;;;;;19.85;5.60;;;;;;;9.71;89.95;102258.78;4937063;29;20150;-82
2023/05/26 06:56:07;;;;;;;11.65;3.83;;;;;;;9.81;89.25;102253.75;4921008;29;20047;-80
2023/05/26 06:58:34;;;;;;;19.15;5.07;;;;;;;9.95;88.49;102265.34;4934691;29;20048;-84
2023/05/26 07:01:03;;;;;;;16.90;6.05;;;;;;;10.03;87.60;102270.75;4935640;29;20082;-80
2023/05/26 07:03:30;;;;;;;23.17;4.63;;;;;;;10.08;85.07;102263.88;4933381;29;20119;-80
2023/05/26 07:05:59;;;;;;;14.60;4.57;;;;;;;10.11;85.02;102266.53;4916800;29;20040;-80
2023/05/26 07:08:27;;;;;;;16.33;4.93;;;;;;;10.14;85.58;102270.94;4912344;29;20048;-79
2023/05/26 07:10:53;;;;;;;21.90;4.60;;;;;;;10.27;85.51;102275.53;4920667;29;20450;-79
2023/05/26 07:13:20;;;;;;;21.05;4.68;;;;;;;10.58;84.57;102270.88;4920379;29;20139;-85
2023/05/26 07:15:46;;;;;;;15.60;4.03;;;;;;;11.02;83.81;102273.34;4932863;29;20388;-82
2023/05/26 07:18:14;;;;;;;23.10;6.10;;;;;;;11.54;81.42;102273.19;4932266;29;20059;-81
2023/05/26 07:20:40;;;;;;;17.33;4.55;;;;;;;12.10;79.53;102271.28;4933832;29;20086;-79
2023/05/26 07:23:07;;;;;;;21.67;5.47;;;;;;;12.73;76.83;102279.72;4928632;29;20036;-79
2023/05/26 07:25:33;;;;;;;14.98;5.53;;;;;;;13.21;73.84;102277.44;4933808;29;20483;-80
2023/05/26 07:28:00;;;;;;;13.88;4.18;;;;;;;13.69;70.92;102274.22;4930459;29;20036;-80
2023/05/26 07:30:27;;;;;;;17.45;4.68;;;;;;;14.07;69.79;102271.69;4931377;28;20036;-90
2023/05/26 07:32:55;;;;;;;22.52;4.45;;;;;;;14.35;69.04;102271.78;4919904;29;20050;-84
2023/05/26 07:35:21;;;;;;;15.93;4.32;;;;;;;14.67;68.53;102265.66;4934757;29;20539;-82
2023/05/26 07:37:48;;;;;;;16.55;5.30;;;;;;;14.98;64.51;102267.38;4935341;29;20112;-80
2023/05/26 07:40:14;;;;;;;15.02;4.90;;;;;;;15.22;64.17;102266.47;4910809;29;20083;-79
2023/05/26 07:42:43;;;;;;;12.07;4.53;;;;;;;15.57;63.82;102262.84;4933984;29;20156;-80
2023/05/26 07:45:10;;;;;;;13.70;4.40;;;;;;;15.82;60.87;102260.97;4933940;29;20051;-80
2023/05/26 07:47:37;;;;;;;21.23;4.25;;;;;;;16.03;59.13;102257.38;4933005;29;20070;-82
2023/05/26 07:50:04;;;;;;;16.08;4.40;;;;;;;16.57;58.79;102258.75;4934593;29;20047;-80
2023/05/26 07:52:30;;;;;;;13.73;4.63;;;;;;;16.98;56.06;102249.56;4934377;29;20511;-81
2023/05/26 07:54:58;;;;;;;16.20;4.72;;;;;;;17.35;53.62;102253.56;4934915;29;20406;-80
2023/05/26 07:57:24;;;;;;;20.15;4.88;;;;;;;17.60;52.94;102254.19;4935914;29;20408;-81
2023/05/26 07:59:52;;;;;;;16.80;5.15;;;;;;;17.77;51.16;102248.66;4933882;29;20047;-82
2023/05/26 08:02:18;;;;;;;14.88;4.43;;;;;;;17.85;50.24;102256.50;4917067;29;20589;-82
2023/05/26 08:04:45;;;;;;;14.70;4.30;;;;;;;17.57;46.67;102248.91;4915106;29;20048;-85
2023/05/26 08:07:11;;;;;;;15.77;4.78;;;;;;;16.98;48.63;102246.91;4932959;29;20135;-82
2023/05/26 08:09:38;;;;;;;13.00;4.75;;;;;;;17.35;49.69;102241.25;4918171;29;20055;-82
2023/05/26 08:12:06;;;;;;;13.10;4.78;;;;;;;18.22;48.20;102241.88;4934751;29;20150;-81
2023/05/26 08:14:33;;;;;;;19.40;4.38;;;;;;;18.79;46.16;102239.13;4920262;29;20091;-83
2023/05/26 08:17:01;;;;;;;18.42;5.07;;;;;;;19.43;45.38;102238.81;4916268;29;20048;-81
2023/05/26 08:19:28;;;;;;;13.52;4.47;;;;;;;20.07;44.27;102240.97;4921985;28;20094;-81
2023/05/26 08:21:54;;;;;;;12.68;4.25;;;;;;;20.76;43.47;102240.22;4950394;29;20051;-81
2023/05/26 08:24:22;;;;;;;11.60;4.13;;;;;;;21.40;40.61;102242.84;4937741;29;20102;-81
2023/05/26 08:26:51;;;;;;;15.88;5.30;;;;;;;21.42;40.03;102245.47;4942260;29;20047;-80
2023/05/26 08:29:18;;;;;;;21.27;4.68;;;;;;;21.66;39.25;102233.25;4923455;29;20398;-81
2023/05/26 08:31:47;;;;;;;14.35;4.82;;;;;;;21.65;40.26;102239.50;4937701;29;20051;-81
2023/05/26 08:34:14;;;;;;;12.70;3.55;;;;;;;22.01;38.95;102235.75;4937581;29;20380;-81
2023/05/26 08:36:40;;;;;;;12.93;4.68;;;;;;;22.09;39.10;102239.03;4916072;29;20118;-81
2023/05/26 08:39:09;;;;;;;17.13;4.72;;;;;;;21.79;38.41;102229.28;4939541;29;20470;-84
2023/05/26 08:41:49;;;;;;;12.43;4.00;;;;;;;21.99;38.20;102241.13;4922478;29;20402;-82
2023/05/26 08:44:18;;;;;;;14.23;4.97;;;;;;;22.40;37.10;102244.28;4938462;29;20043;-81
2023/05/26 08:46:46;;;;;;;17.48;4.55;;;;;;;22.85;36.80;102239.19;4934945;29;20123;-81
2023/05/26 08:49:17;;;;;;;13.32;4.57;;;;;;;23.39;35.89;102235.47;4924007;29;20142;-82
2023/05/26 08:51:46;;;;;;;12.88;4.57;;;;;;;23.56;34.94;102241.97;4933424;29;20091;-82
2023/05/26 08:54:13;;;;;;;11.77;4.53;;;;;;;23.62;35.00;102250.63;4953845;29;20045;-81
2023/05/26 08:56:40;;;;;;;13.27;5.25;;;;;;;23.73;34.69;102247.53;4932665;29;20055;-82
2023/05/26 08:59:08;;;;;;;16.75;4.85;;;;;;;23.84;34.22;102240.88;4944604;28;20089;-84
2023/05/26 09:01:35;;;;;;;12.13;4.93;;;;;;;22.53;34.82;102244.72;4936391;29;20081;-85
2023/05/26 09:04:02;;;;;;;16.98;5.18;;;;;;;22.66;35.37;102239.84;4929795;29;20542;-81
2023/05/26 09:06:28;;;;;;;16.88;6.28;;;;;;;23.50;34.95;102235.03;4936025;29;20122;-82
2023/05/26 09:08:55;;;;;;;12.52;5.15;;;;;;;24.32;33.91;102230.94;4923356;29;20643;-84
2023/05/26 09:11:27;;;;;;;10.23;5.00;;;;;;;24.75;31.82;102223.78;4915469;29;20044;-86
2023/05/26 09:13:57;;;;;;;11.35;4.43;;;;;;;25.09;31.65;102231.16;4923791;29;20044;-81
2023/05/26 09:16:25;;;;;;;11.63;5.05;;;;;;;25.70;30.40;102233.78;4938109;29;20053;-81
2023/05/26 09:18:59;;;;;;;13.50;4.30;;;;;;;25.74;29.19;102232.69;4932785;29;20039;-82
2023/05/26 09:21:26;;;;;;;12.38;5.05;;;;;;;25.67;31.05;102231.25;4942033;29;20094;-89
2023/05/26 09:23:59;;;;;;;17.30;5.80;;;;;;;26.32;29.03;102233.47;4936212;29;20067;-81
2023/05/26 09:26:38;;;;;;;16.42;4.78;;;;;;;27.07;28.26;102228.72;4929777;29;20051;-82
2023/05/26 09:29:05;;;;;;;10.75;4.60;;;;;;;27.11;28.04;102232.97;4933561;29;20432;-84
2023/05/26 09:31:47;;;;;;;8.65;3.42;;;;;;;27.35;26.63;102233.47;4936741;29;20745;-81
2023/05/26 09:34:16;;;;;;;11.13;4.88;;;;;;;27.73;26.46;102235.00;4935007;29;20098;-82
2023/05/26 09:36:43;;;;;;;8.25;3.90;;;;;;;27.57;26.21;102224.22;4920573;29;20055;-82
2023/05/26 09:39:13;;;;;;;14.57;4.97;;;;;;;27.24;26.67;102227.78;4934536;29;20035;-82
2023/05/26 09:41:42;;;;;;;13.32;3.72;;;;;;;27.43;26.43;102241.13;4942274;29;20058;-81
2023/05/26 09:44:20;;;;;;;8.38;4.00;;;;;;;27.17;25.05;102235.31;4937725;29;20131;-83
2023/05/26 09:46:47;;;;;;;16.65;3.88;;;;;;;27.21;25.51;102226.13;4939416;29;20051;-88
2023/05/26 09:49:18;;;;;;;11.50;4.22;;;;;;;27.28;25.69;102232.03;4935256;28;20112;-81
2023/05/26 09:51:51;;;;;;;9.88;3.33;;;;;;;27.72;24.20;102231.41;4919383;29;20052;-87
2023/05/26 09:54:18;;;;;;;13.10;4.72;;;;;;;28.04;25.05;102233.25;4948629;28;20413;-82
2023/05/26 09:56:53;;;;;;;8.30;3.47;;;;;;;27.99;23.83;102227.22;4938567;29;20043;-83
2023/05/26 09:59:21;;;;;;;9.65;4.10;;;;;;;28.32;24.14;102231.63;4946470;29;20157;-86
2023/05/26 10:01:49;;;;;;;11.45;4.03;;;;;;;28.54;23.56;102232.06;4941491;29;20039;-82
2023/05/26 10:04:16;;;;;;;11.82;4.00;;;;;;;28.67;24.36;102229.53;4944545;28;20070;-84
2023/05/26 10:06:46;;;;;;;14.32;4.65;;;;;;;28.79;23.44;102222.53;4943686;29;20066;-83
2023/05/26 10:09:14;;;;;;;11.43;3.85;;;;;;;28.87;23.49;102225.59;4946414;29;20043;-82
2023/05/26 10:11:45;;;;;;;10.45;4.50;;;;;;;29.02;22.86;102226.50;4948514;28;20039;-83
2023/05/26 10:14:12;;;;;;;11.05;4.03;;;;;;;29.92;23.52;102223.50;4938124;29;20040;-81
2023/05/26 10:16:39;;;;;;;10.88;4.35;;;;;;;30.11;22.42;102223.13;4942074;29;20054;-83
2023/05/26 10:19:06;;;;;;;7.32;2.95;;;;;;;30.39;22.59;102223.09;4940880;28;20047;-86
2023/05/26 10:21:40;;;;;;;10.15;4.22;;;;;;;30.18;21.17;102216.34;4938719;29;20058;-82
2023/05/26 10:24:27;;;;;;;9.68;3.67;;;;;;;29.83;21.86;102210.59;4946635;28;20057;-84
2023/05/26 10:27:22;;;;;;;11.75;3.72;;;;;;;30.38;20.63;102211.44;4930075;29;20478;-81
2023/05/26 10:30:11;;;;;;;10.70;3.33;;;;;;;30.55;20.58;102218.41;4954367;28;20066;-82
2023/05/26 10:32:46;;;;;;;15.18;4.18;;;;;;;30.38;21.06;102213.25;4934248;28;20046;-83
2023/05/26 10:35:32;;;;;;;11.02;4.53;;;;;;;30.11;21.11;102211.47;4950090;28;20054;-82
2023/05/26 10:38:02;;;;;;;7.68;3.40;;;;;;;30.86;21.21;102216.25;4931061;29;20043;-83
2023/05/26 10:40:34;;;;;;;8.63;3.55;;;;;;;31.49;19.85;102210.88;4961640;28;20506;-82
2023/05/26 10:43:04;;;;;;;9.10;3.42;;;;;;;31.11;20.86;102211.81;4937806;29;20065;-82
2023/05/26 10:45:34;;;;;;;11.07;3.05;;;;;;;31.33;20.73;102200.31;4948066;28;20057;-82
2023/05/26 10:48:11;;;;;;;6.90;3.05;;;;;;;30.11;20.04;102204.22;4936733;29;20047;-83
2023/05/26 10:50:56;;;;;;;6.13;3.47;;;;;;;29.17;21.52;102210.31;4939890;29;20051;-82
2023/05/26 10:53:23;;;;;;;8.63;2.90;;;;;;;30.07;21.07;102207.25;4955500;28;20054;-82
2023/05/26 10:55:58;;;;;;;7.05;2.85;;;;;;;31.03;20.28;102206.94;4943456;29;20094;-86
2023/05/26 10:58:31;;;;;;;7.72;3.45;;;;;;;31.43;19.57;102201.38;4939640;29;20491;-82
2023/05/26 11:01:04;;;;;;;8.20;3.30;;;;;;;30.08;20.20;102199.03;4953338;28;20561;-83
2023/05/26 11:03:43;;;;;;;7.43;2.92;;;;;;;27.92;22.58;102199.81;4950532;28;20043;-82
2023/05/26 11:06:11;;;;;;;8.50;3.90;;;;;;;28.32;22.84;102202.88;4938132;29;20043;-81
2023/05/26 11:08:50;;;;;;;9.30;2.90;;;;;;;29.77;22.10;102200.19;4951344;28;20528;-84
2023/05/26 11:11:33;;;;;;;11.48;3.78;;;;;;;30.98;20.78;102198.28;4934156;29;20039;-82
2023/05/26 11:14:09;;;;;;;14.23;3.97;;;;;;;31.83;19.71;102190.28;4937633;29;20039;-80
2023/05/26 11:16:40;;;;;;;10.15;4.25;;;;;;;31.77;19.67;102196.19;4921340;28;20061;-81
2023/05/26 11:19:11;;;;;;;7.07;3.95;;;;;;;31.70;19.23;102194.03;4935273;29;20075;-84
2023/05/26 11:21:40;;;;;;;6.88;3.38;;;;;;;31.48;20.50;102195.59;4933079;29;20055;-84
2023/05/26 11:24:08;;;;;;;7.13;3.03;;;;;;;31.71;19.76;102195.75;4936320;29;20121;-86
2023/05/26 11:26:35;;;;;;;7.80;3.33;;;;;;;32.35;20.13;102202.72;4921106;29;20055;-83